createdAt,value
2023-02-21T00:00:02.860Z,95624.00
2023-02-21T00:01:02.870Z,95622.00
2023-02-21T00:02:02.936Z,95622.00
2023-02-21T00:03:02.956Z,95617.00
2023-02-21T00:04:02.995Z,95615.00
2023-02-21T00:05:03.132Z,95619.00
2023-02-21T00:06:03.182Z,95619.00
2023-02-21T00:07:03.187Z,95621.00
2023-02-21T00:08:03.234Z,95619.00
2023-02-21T00:09:03.286Z,95621.00
2023-02-21T00:10:03.372Z,95622.00
2023-02-21T00:11:03.466Z,95622.00
2023-02-21T00:12:03.500Z,95619.00
2023-02-21T00:13:03.596Z,95619.00
2023-02-21T00:14:03.619Z,95621.00
2023-02-21T00:15:03.705Z,95621.00
2023-02-21T00:16:03.765Z,95619.00
2023-02-21T00:17:03.806Z,95622.00
2023-02-21T00:18:03.862Z,95622.00
2023-02-21T00:19:03.955Z,95624.00
2023-02-21T00:20:04.037Z,95622.00
2023-02-21T00:21:04.064Z,95624.00
2023-02-21T00:22:04.115Z,95621.00
2023-02-21T00:23:04.183Z,95622.00
2023-02-21T00:24:04.223Z,95619.00
2023-02-21T00:25:04.318Z,95621.00
2023-02-21T00:26:04.380Z,95621.00
2023-02-21T00:27:04.472Z,95622.00
2023-02-21T00:28:04.505Z,95622.00
2023-02-21T00:29:04.575Z,95622.00
2023-02-21T00:30:04.674Z,95619.00
2023-02-21T00:31:04.703Z,95619.00
2023-02-21T00:32:04.747Z,95624.00
2023-02-21T00:33:07.132Z,95622.00
2023-02-21T00:34:04.879Z,95621.00
2023-02-21T00:35:04.965Z,95622.00
2023-02-21T00:36:04.994Z,95622.00
2023-02-21T00:38:05.126Z,95622.00
2023-02-21T00:39:05.227Z,95621.00
2023-02-21T00:40:05.238Z,95622.00
2023-02-21T00:41:05.329Z,95624.00
2023-02-21T00:42:05.371Z,95628.00
2023-02-21T00:43:05.442Z,95622.00
2023-02-21T00:44:05.501Z,95628.00
2023-02-21T00:45:05.589Z,95622.00
2023-02-21T00:46:05.654Z,95619.00
2023-02-21T00:47:05.701Z,95624.00
2023-02-21T00:48:05.746Z,95622.00
2023-02-21T00:49:05.813Z,95622.00
2023-02-21T00:50:05.887Z,95621.00
2023-02-21T00:51:05.928Z,95622.00
2023-02-21T00:52:05.988Z,95621.00
2023-02-21T00:53:06.046Z,95621.00
2023-02-21T00:54:06.135Z,95621.00
2023-02-21T00:55:06.205Z,95621.00
2023-02-21T00:56:06.228Z,95622.00
2023-02-21T00:57:06.293Z,95624.00
2023-02-21T00:58:06.372Z,95624.00
2023-02-21T00:59:06.386Z,95626.00
2023-02-21T01:00:06.474Z,95622.00
2023-02-21T01:01:06.591Z,95628.00
2023-02-21T01:02:06.600Z,95628.00
2023-02-21T01:03:06.652Z,95628.00
2023-02-21T01:04:06.748Z,95624.00
2023-02-21T01:05:06.753Z,95622.00
2023-02-21T01:06:06.855Z,95628.00
2023-02-21T01:07:06.894Z,95626.00
2023-02-21T01:08:06.944Z,95626.00
2023-02-21T01:09:06.997Z,95626.00
2023-02-21T01:10:07.044Z,95624.00
2023-02-21T01:32:08.453Z,95611.00
2023-02-21T01:34:08.498Z,95609.00
2023-02-21T01:35:08.565Z,95609.00
2023-02-21T01:36:08.646Z,95609.00
2023-02-21T01:37:08.691Z,95607.00
2023-02-21T01:38:08.730Z,95603.00
2023-02-21T01:39:08.800Z,95605.00
2023-02-21T01:40:08.849Z,95605.00
2023-02-21T01:41:08.950Z,95605.00
2023-02-21T01:42:08.975Z,95605.00
2023-02-21T01:43:09.024Z,95605.00
2023-02-21T01:44:09.091Z,95605.00
2023-02-21T01:45:09.130Z,95609.00
2023-02-21T01:46:09.224Z,95611.00
2023-02-21T01:47:09.241Z,95611.00
2023-02-21T01:48:09.310Z,95611.00
2023-02-21T01:49:09.362Z,95609.00
2023-02-21T01:50:09.429Z,95607.00
2023-02-21T01:51:09.508Z,95607.00
2023-02-21T01:52:09.519Z,95607.00
2023-02-21T01:53:09.605Z,95605.00
2023-02-21T01:54:09.661Z,95603.00
2023-02-21T01:55:09.732Z,95599.00
2023-02-21T02:00:09.991Z,95587.00
2023-02-21T02:14:10.739Z,95582.00
2023-02-21T02:31:11.769Z,95568.00
2023-02-21T02:32:11.798Z,95566.00
2023-02-21T02:33:11.835Z,95566.00
2023-02-21T02:34:11.852Z,95566.00
2023-02-21T02:35:11.923Z,95564.00
2023-02-21T02:36:11.987Z,95570.00
2023-02-21T02:37:12.051Z,95568.00
2023-02-21T02:38:12.136Z,95572.00
2023-02-21T02:39:12.164Z,95568.00
2023-02-21T02:40:12.263Z,95568.00
2023-02-21T02:41:12.464Z,95568.00
2023-02-21T02:42:12.387Z,95566.00
2023-02-21T02:43:12.415Z,95564.00
2023-02-21T02:44:12.486Z,95564.00
2023-02-21T02:45:12.550Z,95566.00
2023-02-21T02:46:12.571Z,95568.00
2023-02-21T02:47:12.624Z,95562.00
2023-02-21T02:48:12.673Z,95562.00
2023-02-21T02:49:12.742Z,95560.00
2023-02-21T02:50:12.827Z,95562.00
2023-02-21T02:51:13.306Z,95560.00
2023-02-21T02:52:12.914Z,95558.00
2023-02-21T02:53:12.974Z,95558.00
2023-02-21T02:54:13.038Z,95556.00
2023-02-21T02:55:13.067Z,95558.00
2023-02-21T02:56:13.143Z,95558.00
2023-02-21T02:57:13.492Z,95552.00
2023-02-21T02:58:13.241Z,95556.00
2023-02-21T02:59:13.330Z,95556.00
2023-02-21T03:00:13.380Z,95554.00
2023-02-21T03:01:13.667Z,95554.00
2023-02-21T03:02:13.500Z,95556.00
2023-02-21T03:03:13.572Z,95550.00
2023-02-21T03:04:13.607Z,95552.00
2023-02-21T03:05:13.645Z,95548.00
2023-02-21T03:06:13.702Z,95550.00
2023-02-21T03:07:13.760Z,95550.00
2023-02-21T03:08:13.838Z,95550.00
2023-02-21T03:09:13.862Z,95548.00
2023-02-21T03:10:13.930Z,95548.00
2023-02-21T03:11:14.328Z,95548.00
2023-02-21T03:12:14.028Z,95548.00
2023-02-21T03:13:15.044Z,95544.00
2023-02-21T03:14:14.160Z,95546.00
2023-02-21T03:15:14.226Z,95548.00
2023-02-21T03:16:14.307Z,95548.00
2023-02-21T03:17:14.343Z,95546.00
2023-02-21T03:18:14.402Z,95544.00
2023-02-21T03:19:14.470Z,95544.00
2023-02-21T03:20:14.499Z,95544.00
2023-02-21T03:21:14.827Z,95540.00
2023-02-21T03:22:14.629Z,95542.00
2023-02-21T03:23:14.669Z,95542.00
2023-02-21T03:24:14.741Z,95538.00
2023-02-21T03:25:14.832Z,95538.00
2023-02-21T03:26:14.865Z,95536.00
2023-02-21T03:27:14.897Z,95538.00
2023-02-21T03:28:14.978Z,95532.00
2023-02-21T03:29:15.034Z,95534.00
2023-02-21T03:30:15.104Z,95534.00
2023-02-21T03:31:15.472Z,95534.00
2023-02-21T03:32:15.231Z,95534.00
2023-02-21T03:33:15.258Z,95534.00
2023-02-21T03:34:15.316Z,95532.00
2023-02-21T03:35:15.372Z,95532.00
2023-02-21T03:36:15.452Z,95528.00
2023-02-21T03:37:15.485Z,95530.00
2023-02-21T03:38:15.529Z,95528.00
2023-02-21T03:39:15.577Z,95532.00
2023-02-21T03:40:15.635Z,95532.00
2023-02-21T03:41:16.139Z,95532.00
2023-02-21T03:42:15.755Z,95530.00
2023-02-21T03:43:15.820Z,95530.00
2023-02-21T03:44:15.863Z,95525.00
2023-02-21T03:45:15.894Z,95525.00
2023-02-21T03:46:15.955Z,95525.00
2023-02-21T03:47:16.021Z,95525.00
2023-02-21T03:48:26.068Z,95523.00
2023-02-21T03:49:17.076Z,95525.00
2023-02-21T03:50:16.044Z,95528.00
2023-02-21T03:51:16.382Z,95528.00
2023-02-21T03:52:16.064Z,95530.00
2023-02-21T03:53:16.056Z,95528.00
2023-02-21T03:54:16.036Z,95527.00
2023-02-21T03:55:16.031Z,95527.00
2023-02-21T03:56:15.998Z,95527.00
2023-02-21T03:57:16.059Z,95527.00
2023-02-21T03:58:16.121Z,95527.00
2023-02-21T03:59:16.164Z,95530.00
2023-02-21T04:00:16.233Z,95528.00
2023-02-21T04:01:16.668Z,95525.00
2023-02-21T04:02:16.408Z,95527.00
2023-02-21T04:03:16.396Z,95527.00
2023-02-21T04:04:16.488Z,95527.00
2023-02-21T04:05:16.561Z,95527.00
2023-02-21T04:06:16.647Z,95527.00
2023-02-21T04:07:16.656Z,95525.00
2023-02-21T04:08:16.721Z,95525.00
2023-02-21T04:09:16.798Z,95521.00
2023-02-21T04:10:16.844Z,95519.00
2023-02-21T04:11:16.985Z,95519.00
2023-02-21T04:12:16.988Z,95521.00
2023-02-21T04:13:17.034Z,95521.00
2023-02-21T04:14:17.105Z,95521.00
2023-02-21T04:15:17.158Z,95523.00
2023-02-21T04:16:17.274Z,95517.00
2023-02-21T04:17:17.271Z,95517.00
2023-02-21T04:18:17.362Z,95517.00
2023-02-21T04:19:17.401Z,95515.00
2023-02-21T04:20:17.489Z,95521.00
2023-02-21T04:21:17.550Z,95519.00
2023-02-21T04:22:17.609Z,95519.00
2023-02-21T04:23:17.673Z,95515.00
2023-02-21T04:24:17.705Z,95511.00
2023-02-21T04:25:17.783Z,95513.00
2023-02-21T04:26:17.867Z,95511.00
2023-02-21T04:27:17.925Z,95513.00
2023-02-21T04:28:17.972Z,95513.00
2023-02-21T04:29:18.030Z,95517.00
2023-02-21T04:30:18.119Z,95521.00
2023-02-21T04:31:18.368Z,95523.00
2023-02-21T04:32:18.326Z,95519.00
2023-02-21T04:33:18.253Z,95519.00
2023-02-21T04:34:18.313Z,95515.00
2023-02-21T04:35:18.416Z,95515.00
2023-02-21T04:36:18.518Z,95515.00
2023-02-21T04:37:18.534Z,95521.00
2023-02-21T04:38:18.560Z,95523.00
2023-02-21T04:39:18.651Z,95523.00
2023-02-21T04:40:18.684Z,95521.00
2023-02-21T04:41:18.749Z,95525.00
2023-02-21T04:42:18.831Z,95528.00
2023-02-21T04:43:18.873Z,95532.00
2023-02-21T04:44:18.944Z,95534.00
2023-02-21T04:45:19.009Z,95532.00
2023-02-21T04:46:19.060Z,95534.00
2023-02-21T04:47:19.122Z,95530.00
2023-02-21T04:48:19.177Z,95532.00
2023-02-21T04:49:19.253Z,95536.00
2023-02-21T04:50:19.307Z,95536.00
2023-02-21T04:51:19.820Z,95536.00
2023-02-21T04:52:19.394Z,95538.00
2023-02-21T04:53:19.471Z,95536.00
2023-02-21T04:54:19.534Z,95534.00
2023-02-21T04:55:19.607Z,95538.00
2023-02-21T04:56:19.670Z,95538.00
2023-02-21T04:57:19.715Z,95540.00
2023-02-21T04:58:19.757Z,95542.00
2023-02-21T04:59:19.817Z,95542.00
2023-02-21T05:00:19.881Z,95538.00
2023-02-21T05:01:19.972Z,95540.00
2023-02-21T05:02:20.030Z,95534.00
2023-02-21T05:03:20.046Z,95540.00
2023-02-21T05:04:20.175Z,95538.00
2023-02-21T05:05:20.220Z,95542.00
2023-02-21T05:06:20.244Z,95540.00
2023-02-21T05:07:20.297Z,95542.00
2023-02-21T05:08:20.344Z,95542.00
2023-02-21T05:09:20.372Z,95542.00
2023-02-21T05:24:21.129Z,95544.00
2023-02-21T05:43:22.047Z,95558.00
2023-02-21T05:44:22.132Z,95558.00
2023-02-21T05:45:22.114Z,95560.00
2023-02-21T05:46:22.255Z,95560.00
2023-02-21T05:47:22.238Z,95566.00
2023-02-21T05:48:22.278Z,95562.00
2023-02-21T05:49:22.325Z,95564.00
2023-02-21T05:50:22.362Z,95566.00
2023-02-21T05:51:22.414Z,95562.00
2023-02-21T05:52:22.462Z,95564.00
2023-02-21T05:53:22.482Z,95564.00
2023-02-21T05:54:22.578Z,95564.00
2023-02-21T05:55:22.616Z,95564.00
2023-02-21T05:56:22.666Z,95560.00
2023-02-21T05:57:22.705Z,95560.00
2023-02-21T06:02:42.116Z,95560.00
2023-02-21T06:03:42.199Z,95560.00
2023-02-21T06:04:42.092Z,95562.00
2023-02-21T06:05:42.095Z,95568.00
2023-02-21T06:06:42.082Z,95564.00
2023-02-21T06:07:42.090Z,95564.00
2023-02-21T06:08:42.087Z,95562.00
2023-02-21T06:09:42.795Z,95562.00
2023-02-21T06:10:42.058Z,95566.00
2023-02-21T06:11:42.055Z,95562.00
2023-02-21T06:13:42.065Z,95562.00
2023-02-21T06:32:42.331Z,95570.00
2023-02-21T06:37:42.324Z,95575.00
2023-02-21T06:45:41.787Z,95577.00
2023-02-21T07:17:42.367Z,95605.00
2023-02-21T07:18:42.055Z,95603.00
2023-02-21T07:19:42.270Z,95609.00
2023-02-21T07:20:42.136Z,95611.00
2023-02-21T07:21:42.179Z,95611.00
2023-02-21T07:22:42.224Z,95613.00
2023-02-21T07:23:42.317Z,95611.00
2023-02-21T07:24:42.291Z,95611.00
2023-02-21T07:25:42.351Z,95611.00
2023-02-21T07:26:42.422Z,95609.00
2023-02-21T07:27:42.478Z,95605.00
2023-02-21T07:28:42.560Z,95605.00
2023-02-21T07:29:42.591Z,95609.00
2023-02-21T07:30:42.676Z,95609.00
2023-02-21T07:31:42.857Z,95611.00
2023-02-21T07:32:42.759Z,95607.00
2023-02-21T07:33:42.877Z,95607.00
2023-02-21T07:34:42.828Z,95603.00
2023-02-21T07:48:43.340Z,95603.00
2023-02-21T08:22:44.031Z,95582.00
2023-02-21T08:23:44.040Z,95577.00
2023-02-21T08:24:44.066Z,95577.00
2023-02-21T08:25:44.048Z,95577.00
2023-02-21T08:26:44.045Z,95577.00
2023-02-21T08:27:44.050Z,95577.00
2023-02-21T08:28:44.044Z,95574.00
2023-02-21T08:29:44.033Z,95575.00
2023-02-21T08:30:44.073Z,95575.00
2023-02-21T08:31:44.038Z,95574.00
2023-02-21T08:32:44.027Z,95575.00
2023-02-21T08:33:44.344Z,95574.00
2023-02-21T08:34:44.061Z,95568.00
2023-02-21T08:35:44.015Z,95570.00
2023-02-21T08:36:44.037Z,95568.00
2023-02-21T08:37:44.040Z,95568.00
2023-02-21T08:38:44.021Z,95568.00
2023-02-21T08:39:44.094Z,95566.00
2023-02-21T08:40:44.093Z,95566.00
2023-02-21T08:41:44.130Z,95566.00
2023-02-21T08:42:44.228Z,95566.00
2023-02-21T08:43:44.379Z,95564.00
2023-02-21T08:44:44.256Z,95568.00
2023-02-21T08:45:44.250Z,95564.00
2023-02-21T08:46:44.311Z,95564.00
2023-02-21T08:47:44.364Z,95564.00
2023-02-21T08:48:44.871Z,95564.00
2023-02-21T08:49:44.463Z,95564.00
2023-02-21T08:50:44.484Z,95562.00
2023-02-21T08:51:44.541Z,95562.00
2023-02-21T08:52:44.584Z,95566.00
2023-02-21T08:53:44.608Z,95562.00
2023-02-21T08:54:44.633Z,95562.00
2023-02-21T08:55:44.691Z,95562.00
2023-02-21T08:56:44.678Z,95560.00
2023-02-21T08:57:44.693Z,95562.00
2023-02-21T08:58:44.748Z,95560.00
2023-02-21T08:59:44.692Z,95558.00
2023-02-21T09:00:44.780Z,95558.00
2023-02-21T09:01:44.807Z,95556.00
2023-02-21T09:02:44.757Z,95554.00
2023-02-21T09:03:44.878Z,95554.00
2023-02-21T09:04:44.758Z,95552.00
2023-02-21T09:05:44.761Z,95550.00
2023-02-21T09:06:44.759Z,95552.00
2023-02-21T09:07:44.807Z,95544.00
2023-02-21T09:08:44.787Z,95544.00
2023-02-21T09:09:44.865Z,95544.00
2023-02-21T09:10:44.849Z,95544.00
2023-02-21T09:11:44.808Z,95548.00
2023-02-21T09:12:44.841Z,95544.00
2023-02-21T09:13:44.861Z,95544.00
2023-02-21T09:14:44.872Z,95544.00
2023-02-21T09:15:44.879Z,95544.00
2023-02-21T09:16:47.692Z,95542.00
2023-02-21T09:17:44.948Z,95540.00
2023-02-21T09:18:44.878Z,95538.00
2023-02-21T09:19:44.872Z,95540.00
2023-02-21T09:20:44.865Z,95540.00
2023-02-21T09:21:44.878Z,95540.00
2023-02-21T09:22:44.914Z,95540.00
2023-02-21T09:23:44.856Z,95538.00
2023-02-21T09:24:44.914Z,95534.00
2023-02-21T09:25:44.827Z,95532.00
2023-02-21T09:26:44.882Z,95536.00
2023-02-21T09:27:44.821Z,95532.00
2023-02-21T09:28:44.833Z,95534.00
2023-02-21T09:29:46.699Z,95530.00
2023-02-21T09:30:44.868Z,95528.00
2023-02-21T09:31:44.791Z,95527.00
2023-02-21T09:32:44.875Z,95523.00
2023-02-21T09:33:44.798Z,95523.00
2023-02-21T09:34:44.907Z,95523.00
2023-02-21T09:35:44.841Z,95521.00
2023-02-21T09:36:44.779Z,95515.00
2023-02-21T09:37:44.755Z,95517.00
2023-02-21T09:38:44.760Z,95515.00
2023-02-21T09:39:44.772Z,95513.00
2023-02-21T09:40:44.773Z,95511.00
2023-02-21T09:41:44.791Z,95509.00
2023-02-21T09:42:44.754Z,95505.00
2023-02-21T09:43:44.756Z,95509.00
2023-02-21T09:44:44.891Z,95507.00
2023-02-21T09:45:44.950Z,95509.00
2023-02-21T09:46:44.936Z,95505.00
2023-02-21T09:47:44.954Z,95503.00
2023-02-21T09:48:45.033Z,95503.00
2023-02-21T09:49:45.379Z,95507.00
2023-02-21T09:50:45.134Z,95507.00
2023-02-21T09:51:45.185Z,95509.00
2023-02-21T09:52:45.291Z,95509.00
2023-02-21T09:53:45.357Z,95505.00
2023-02-21T09:54:46.423Z,95505.00
2023-02-21T09:55:45.508Z,95505.00
2023-02-21T09:56:45.487Z,95507.00
2023-02-21T09:57:45.527Z,95505.00
2023-02-21T09:58:45.574Z,95503.00
2023-02-21T09:59:45.628Z,95503.00
2023-02-21T10:00:46.994Z,95499.00
2023-02-21T10:01:45.630Z,95501.00
2023-02-21T10:02:45.643Z,95499.00
2023-02-21T10:03:45.598Z,95499.00
2023-02-21T10:04:45.647Z,95497.00
2023-02-21T10:05:45.621Z,95499.00
2023-02-21T10:06:45.593Z,95495.00
2023-02-21T10:07:45.617Z,95493.00
2023-02-21T10:08:45.616Z,95493.00
2023-02-21T10:09:45.933Z,95489.00
2023-02-21T10:10:45.613Z,95489.00
2023-02-21T10:11:45.670Z,95488.00
2023-02-21T10:12:45.699Z,95488.00
2023-02-21T10:13:45.747Z,95486.00
2023-02-21T10:14:45.812Z,95486.00
2023-02-21T10:15:46.457Z,95488.00
2023-02-21T10:16:45.994Z,95486.00
2023-02-21T10:17:46.041Z,95486.00
2023-02-21T10:18:46.087Z,95486.00
2023-02-21T10:19:46.117Z,95484.00
2023-02-21T10:20:46.417Z,95486.00
2023-02-21T10:21:46.204Z,95486.00
2023-02-21T10:22:46.292Z,95484.00
2023-02-21T10:23:46.287Z,95486.00
2023-02-21T10:24:46.335Z,95488.00
2023-02-21T10:25:46.405Z,95486.00
2023-02-21T10:26:46.372Z,95486.00
2023-02-21T10:27:46.421Z,95486.00
2023-02-21T10:28:46.443Z,95486.00
2023-02-21T10:29:46.455Z,95486.00
2023-02-21T10:30:46.623Z,95480.00
2023-02-21T10:31:46.601Z,95480.00
2023-02-21T10:32:46.552Z,95478.00
2023-02-21T10:33:46.539Z,95478.00
2023-02-21T10:34:47.420Z,95476.00
2023-02-21T10:35:46.908Z,95472.00
2023-02-21T10:36:46.626Z,95474.00
2023-02-21T10:37:46.645Z,95472.00
2023-02-21T10:38:46.642Z,95472.00
2023-02-21T10:39:46.712Z,95472.00
2023-02-21T10:40:46.919Z,95468.00
2023-02-21T10:41:46.770Z,95470.00
2023-02-21T10:42:46.794Z,95468.00
2023-02-21T10:43:46.813Z,95468.00
2023-02-21T10:44:46.849Z,95466.00
2023-02-21T10:45:47.147Z,95464.00
2023-02-21T10:46:46.906Z,95464.00
2023-02-21T10:47:46.969Z,95462.00
2023-02-21T10:48:47.033Z,95458.00
2023-02-21T10:49:47.018Z,95458.00
2023-02-21T10:50:47.431Z,95458.00
2023-02-21T10:51:47.113Z,95456.00
2023-02-21T10:52:47.186Z,95454.00
2023-02-21T10:53:47.193Z,95452.00
2023-02-21T10:54:47.245Z,95443.00
2023-02-21T10:55:47.400Z,95439.00
2023-02-21T10:56:47.315Z,95439.00
2023-02-21T10:57:47.319Z,95433.00
2023-02-21T10:58:47.352Z,95433.00
2023-02-21T10:59:50.296Z,95431.00
2023-02-21T11:00:47.424Z,95429.00
2023-02-21T11:01:47.514Z,95427.00
2023-02-21T11:02:47.419Z,95425.00
2023-02-21T11:03:47.374Z,95421.00
2023-02-21T11:04:47.634Z,95419.00
2023-02-21T11:05:47.327Z,95417.00
2023-02-21T11:06:47.344Z,95415.00
2023-02-21T11:07:47.335Z,95413.00
2023-02-21T11:08:47.317Z,95413.00
2023-02-21T11:09:47.313Z,95411.00
2023-02-21T11:10:47.333Z,95407.00
2023-02-21T11:11:47.347Z,95405.00
2023-02-21T11:12:47.367Z,95403.00
2023-02-21T11:13:47.305Z,95401.00
2023-02-21T11:14:47.298Z,95399.00
2023-02-21T11:15:47.306Z,95397.00
2023-02-21T11:16:47.297Z,95396.00
2023-02-21T11:17:47.274Z,95392.00
2023-02-21T11:18:47.279Z,95390.00
2023-02-21T11:19:47.280Z,95388.00
2023-02-21T11:20:47.259Z,95384.00
2023-02-21T11:21:47.400Z,95384.00
2023-02-21T11:22:47.271Z,95378.00
2023-02-21T11:23:47.220Z,95376.00
2023-02-21T11:24:47.222Z,95374.00
2023-02-21T11:25:47.234Z,95376.00
2023-02-21T11:26:47.195Z,95370.00
2023-02-21T11:27:47.216Z,95370.00
2023-02-21T11:28:47.206Z,95366.00
2023-02-21T11:29:47.189Z,95364.00
2023-02-21T11:30:47.296Z,95366.00
2023-02-21T11:31:47.267Z,95360.00
2023-02-21T11:32:47.136Z,95360.00
2023-02-21T11:33:47.132Z,95356.00
2023-02-21T11:34:47.153Z,95358.00
2023-02-21T11:35:47.143Z,95356.00
2023-02-21T11:36:47.453Z,95354.00
2023-02-21T11:37:47.147Z,95354.00
2023-02-21T11:38:47.122Z,95349.00
2023-02-21T11:39:47.117Z,95347.00
2023-02-21T11:40:47.130Z,95347.00
2023-02-21T11:41:47.461Z,95345.00
2023-02-21T11:42:47.074Z,95341.00
2023-02-21T11:43:48.085Z,95339.00
2023-02-21T11:44:47.058Z,95339.00
2023-02-21T11:45:47.126Z,95335.00
2023-02-21T11:46:47.446Z,95335.00
2023-02-21T11:47:47.076Z,95333.00
2023-02-21T11:48:47.055Z,95329.00
2023-02-21T11:49:49.839Z,95331.00
2023-02-21T11:50:47.069Z,95327.00
2023-02-21T11:51:47.038Z,95323.00
2023-02-21T11:52:47.017Z,95327.00
2023-02-21T11:53:47.074Z,95327.00
2023-02-21T11:54:47.027Z,95321.00
2023-02-21T11:55:46.992Z,95319.00
2023-02-21T11:56:47.443Z,95317.00
2023-02-21T11:57:47.004Z,95313.00
2023-02-21T11:58:46.987Z,95315.00
2023-02-21T11:59:46.939Z,95315.00
2023-02-21T12:00:46.974Z,95311.00
2023-02-21T12:01:47.029Z,95310.00
2023-02-21T12:02:46.968Z,95310.00
2023-02-21T12:03:46.918Z,95308.00
2023-02-21T12:04:46.899Z,95304.00
2023-02-21T12:05:46.984Z,95302.00
2023-02-21T12:06:49.824Z,95304.00
2023-02-21T12:07:46.893Z,95302.00
2023-02-21T12:08:46.926Z,95296.00
2023-02-21T12:09:46.923Z,95296.00
2023-02-21T12:10:46.881Z,95294.00
2023-02-21T12:11:46.945Z,95292.00
2023-02-21T12:12:46.856Z,95286.00
2023-02-21T12:13:46.908Z,95288.00
2023-02-21T12:14:46.844Z,95286.00
2023-02-21T12:15:46.869Z,95284.00
2023-02-21T12:16:46.842Z,95284.00
2023-02-21T12:17:46.835Z,95280.00
2023-02-21T12:18:46.811Z,95278.00
2023-02-21T12:19:46.825Z,95276.00
2023-02-21T12:20:46.819Z,95272.00
2023-02-21T12:21:46.869Z,95270.00
2023-02-21T12:22:46.812Z,95270.00
2023-02-21T12:23:46.800Z,95268.00
2023-02-21T12:24:46.822Z,95266.00
2023-02-21T12:25:46.754Z,95264.00
2023-02-21T12:26:46.778Z,95263.00
2023-02-21T12:27:46.952Z,95263.00
2023-02-21T12:28:46.740Z,95261.00
2023-02-21T12:29:46.753Z,95259.00
2023-02-21T12:30:46.754Z,95255.00
2023-02-21T12:31:46.873Z,95251.00
2023-02-21T12:32:46.954Z,95253.00
2023-02-21T12:33:46.715Z,95253.00
2023-02-21T12:34:46.726Z,95251.00
2023-02-21T12:35:46.756Z,95247.00
2023-02-21T12:36:46.664Z,95245.00
2023-02-21T12:37:46.977Z,95243.00
2023-02-21T12:38:46.712Z,95243.00
2023-02-21T12:39:46.656Z,95239.00
2023-02-21T12:40:46.656Z,95239.00
2023-02-21T12:41:46.673Z,95235.00
2023-02-21T12:42:46.688Z,95235.00
2023-02-21T12:43:46.643Z,95233.00
2023-02-21T12:44:46.628Z,95231.00
2023-02-21T12:45:46.632Z,95229.00
2023-02-21T12:46:46.646Z,95227.00
2023-02-21T12:47:46.594Z,95223.00
2023-02-21T12:48:46.584Z,95223.00
2023-02-21T12:49:46.577Z,95221.00
2023-02-21T12:50:46.595Z,95223.00
2023-02-21T12:51:46.552Z,95219.00
2023-02-21T12:52:46.577Z,95219.00
2023-02-21T12:53:46.545Z,95214.00
2023-02-21T12:54:46.544Z,95210.00
2023-02-21T12:55:46.565Z,95212.00
2023-02-21T12:56:46.533Z,95210.00
2023-02-21T12:57:46.552Z,95208.00
2023-02-21T12:58:46.511Z,95206.00
2023-02-21T12:59:46.550Z,95200.00
2023-02-21T13:00:46.520Z,95202.00
2023-02-21T13:01:46.553Z,95198.00
2023-02-21T13:02:46.526Z,95196.00
2023-02-21T13:03:46.491Z,95196.00
2023-02-21T13:04:46.494Z,95186.00
2023-02-21T13:05:46.494Z,95186.00
2023-02-21T13:06:46.491Z,95184.00
2023-02-21T13:07:46.548Z,95180.00
2023-02-21T13:08:46.545Z,95182.00
2023-02-21T13:09:46.540Z,95184.00
2023-02-21T13:10:46.567Z,95182.00
2023-02-21T13:11:46.627Z,95180.00
2023-02-21T13:12:46.641Z,95178.00
2023-02-21T13:13:46.683Z,95178.00
2023-02-21T13:14:46.704Z,95174.00
2023-02-21T13:15:46.727Z,95171.00
2023-02-21T13:16:46.765Z,95171.00
2023-02-21T13:17:46.778Z,95171.00
2023-02-21T13:18:46.811Z,95167.00
2023-02-21T13:19:46.858Z,95165.00
2023-02-21T13:20:46.867Z,95165.00
2023-02-21T13:21:46.926Z,95163.00
2023-02-21T13:22:46.935Z,95159.00
2023-02-21T13:23:46.956Z,95159.00
2023-02-21T13:24:47.033Z,95155.00
2023-02-21T13:25:47.040Z,95153.00
2023-02-21T13:26:47.098Z,95153.00
2023-02-21T13:27:47.104Z,95151.00
2023-02-21T13:29:47.157Z,95149.00
2023-02-21T13:30:47.381Z,95149.00
2023-02-21T13:31:47.389Z,95143.00
2023-02-21T13:32:47.279Z,95145.00
2023-02-21T13:33:47.335Z,95143.00
2023-02-21T13:34:47.373Z,95137.00
2023-02-21T13:35:47.377Z,95137.00
2023-02-21T13:36:47.450Z,95137.00
2023-02-21T13:37:47.454Z,95135.00
2023-02-21T13:38:47.505Z,95133.00
2023-02-21T13:39:47.572Z,95129.00
2023-02-21T13:40:47.660Z,95131.00
2023-02-21T13:41:47.623Z,95127.00
2023-02-21T13:42:47.699Z,95129.00
2023-02-21T13:43:47.716Z,95127.00
2023-02-21T13:44:47.753Z,95125.00
2023-02-21T13:45:47.831Z,95127.00
2023-02-21T13:46:47.890Z,95127.00
2023-02-21T13:47:47.902Z,95125.00
2023-02-21T13:48:47.946Z,95122.00
2023-02-21T13:49:48.022Z,95122.00
2023-02-21T13:50:48.021Z,95120.00
2023-02-21T13:51:48.069Z,95118.00
2023-02-21T13:52:48.141Z,95116.00
2023-02-21T13:53:48.154Z,95116.00
2023-02-21T13:54:48.212Z,95116.00
2023-02-21T13:55:48.225Z,95112.00
2023-02-21T13:56:48.282Z,95112.00
2023-02-21T13:57:48.329Z,95112.00
2023-02-21T13:58:48.368Z,95112.00
2023-02-21T13:59:48.427Z,95114.00
2023-02-21T14:00:48.465Z,95108.00
2023-02-21T14:01:48.506Z,95112.00
2023-02-21T14:02:48.554Z,95110.00
2023-02-21T14:03:48.628Z,95110.00
2023-02-21T14:04:48.657Z,95108.00
2023-02-21T14:05:48.685Z,95106.00
2023-02-21T14:06:48.742Z,95104.00
2023-02-21T14:07:48.780Z,95102.00
2023-02-21T14:08:48.823Z,95102.00
2023-02-21T14:09:48.876Z,95100.00
2023-02-21T14:10:48.940Z,95096.00
2023-02-21T14:11:48.960Z,95096.00
2023-02-21T14:12:49.043Z,95096.00
2023-02-21T14:13:49.049Z,95094.00
2023-02-21T14:14:49.168Z,95094.00
2023-02-21T14:15:49.154Z,95090.00
2023-02-21T14:16:49.246Z,95090.00
2023-02-21T14:17:49.270Z,95090.00
2023-02-21T14:18:49.283Z,95088.00
2023-02-21T14:19:49.358Z,95088.00
2023-02-21T14:20:49.409Z,95090.00
2023-02-21T14:21:49.483Z,95090.00
2023-02-21T14:22:49.491Z,95086.00
2023-02-21T14:23:49.547Z,95085.00
2023-02-21T14:24:49.604Z,95085.00
2023-02-21T14:25:49.631Z,95083.00
2023-02-21T14:26:49.720Z,95083.00
2023-02-21T14:27:49.706Z,95085.00
2023-02-21T14:28:49.745Z,95080.00
2023-02-21T14:29:49.917Z,95078.00
2023-02-21T14:30:49.886Z,95080.00
2023-02-21T14:31:49.961Z,95077.00
2023-02-21T14:32:49.999Z,95078.00
2023-02-21T14:33:50.026Z,95077.00
2023-02-21T14:34:50.074Z,95077.00
2023-02-21T14:35:50.131Z,95077.00
2023-02-21T14:36:50.189Z,95075.00
2023-02-21T14:37:50.276Z,95075.00
2023-02-21T14:38:50.328Z,95075.00
2023-02-21T14:39:50.374Z,95073.00
2023-02-21T14:40:50.393Z,95071.00
2023-02-21T14:41:50.412Z,95069.00
2023-02-21T14:42:50.481Z,95069.00
2023-02-21T14:43:50.546Z,95073.00
2023-02-21T14:44:50.591Z,95067.00
2023-02-21T14:45:50.681Z,95063.00
2023-02-21T14:46:50.715Z,95065.00
2023-02-21T14:47:50.752Z,95067.00
2023-02-21T14:48:50.824Z,95063.00
2023-02-21T14:49:50.839Z,95063.00
2023-02-21T14:50:50.901Z,95063.00
2023-02-21T14:51:50.980Z,95063.00
2023-02-21T14:52:51.013Z,95059.00
2023-02-21T14:53:51.064Z,95059.00
2023-02-21T14:54:51.141Z,95057.00
2023-02-21T14:55:51.168Z,95055.00
2023-02-21T14:56:51.194Z,95057.00
2023-02-21T14:57:51.308Z,95057.00
2023-02-21T14:58:51.330Z,95057.00
2023-02-21T14:59:51.359Z,95055.00
2023-02-21T15:00:51.442Z,95057.00
2023-02-21T15:01:51.495Z,95057.00
2023-02-21T15:03:51.645Z,95055.00
2023-02-21T15:04:51.764Z,95057.00
2023-02-21T15:05:51.728Z,95055.00